Time;durP1;ratioP1;P1;durP2;ratioP2;P2;SDS_P1;SDS_P2;PMS_P1;PMS_P2;Temp;Humidity;BMP_temperature;BMP_pressure;BME280_temperature;BME280_humidity;BME280_pressure;Samples;Min_cycle;Max_cycle;Signal;HPM_P1;HPM_P2
2021/07/12 00:02:02;;;;;;;15.47;10.07;;;19.90;99.90;;;;;;5098145;28;20470;-64
2021/07/12 00:04:29;;;;;;;10.73;9.67;;;20.10;99.90;;;;;;5098856;28;20480;-64
2021/07/12 00:06:56;;;;;;;10.50;9.40;;;20.20;99.90;;;;;;5102134;28;20464;-65
2021/07/12 00:09:23;;;;;;;9.17;8.27;;;20.20;99.90;;;;;;5103477;28;20455;-65
2021/07/12 00:11:50;;;;;;;10.70;9.70;;;20.20;99.90;;;;;;5075367;28;20446;-65
2021/07/12 00:14:18;;;;;;;10.73;8.93;;;20.30;99.90;;;;;;5058007;28;20670;-65
2021/07/12 00:16:45;;;;;;;9.37;8.50;;;20.20;99.90;;;;;;5058244;28;20480;-64
2021/07/12 00:19:12;;;;;;;10.03;9.13;;;20.10;99.90;;;;;;5066531;28;20449;-64
2021/07/12 00:21:39;;;;;;;11.87;10.60;;;20.20;99.90;;;;;;5057978;28;20448;-64
2021/07/12 00:24:06;;;;;;;11.93;10.80;;;19.90;99.90;;;;;;5067021;28;20422;-65
2021/07/12 00:26:33;;;;;;;11.27;9.80;;;19.90;99.90;;;;;;5057690;28;20830;-67
2021/07/12 00:29:00;;;;;;;11.70;10.60;;;19.90;99.90;;;;;;5067109;28;20411;-65
2021/07/12 00:31:27;;;;;;;12.07;10.90;;;20.00;99.90;;;;;;5067690;28;20417;-66
2021/07/12 00:33:55;;;;;;;9.97;9.00;;;19.90;99.90;;;;;;5066407;28;20452;-66
2021/07/12 00:36:22;;;;;;;11.10;10.10;;;20.00;99.90;;;;;;5060832;28;20508;-65
2021/07/12 00:38:49;;;;;;;10.77;9.77;;;20.10;99.90;;;;;;5062109;28;20419;-65
2021/07/12 00:41:16;;;;;;;12.40;11.13;;;20.20;99.90;;;;;;5075560;28;20452;-65
2021/07/12 00:43:43;;;;;;;12.60;11.40;;;20.20;99.90;;;;;;5062252;28;20469;-66
2021/07/12 00:46:10;;;;;;;12.77;11.17;;;20.20;99.90;;;;;;5074820;28;20410;-66
2021/07/12 00:48:37;;;;;;;16.60;13.30;;;20.00;99.90;;;;;;5041849;28;20638;-66
2021/07/12 00:51:05;;;;;;;19.27;16.50;;;19.90;99.90;;;;;;5054962;28;20447;-65
2021/07/12 00:53:32;;;;;;;15.60;13.90;;;19.90;99.90;;;;;;5061287;28;20430;-65
2021/07/12 00:55:59;;;;;;;15.37;13.77;;;19.90;99.90;;;;;;5061569;28;20489;-66
2021/07/12 00:58:27;;;;;;;16.67;14.17;;;19.90;99.90;;;;;;5061070;28;20418;-65
2021/07/12 01:00:59;;;;;;;16.77;14.63;;;19.80;99.90;;;;;;5060964;28;20767;-65
2021/07/12 01:03:26;;;;;;;14.53;12.10;;;19.80;99.90;;;;;;5061541;28;20432;-65
2021/07/12 01:05:54;;;;;;;15.57;13.97;;;19.70;99.90;;;;;;5061604;28;20453;-65
2021/07/12 01:08:21;;;;;;;14.70;13.17;;;19.70;99.90;;;;;;5059867;28;20444;-66
2021/07/12 01:10:59;;;;;;;14.93;13.27;;;19.50;99.90;;;;;;5065728;28;20458;-65
2021/07/12 01:13:37;;;;;;;17.10;12.17;;;19.50;99.90;;;;;;5096795;28;20438;-65
2021/07/12 01:16:30;;;;;;;16.00;14.30;;;19.60;99.90;;;;;;5096250;28;20409;-65
2021/07/12 01:19:35;;;;;;;14.63;13.33;;;19.40;99.90;;;;;;5084618;28;20476;-65
2021/07/12 01:22:14;;;;;;;15.10;13.60;;;19.60;99.90;;;;;;5086118;28;20787;-65
2021/07/12 01:25:00;;;;;;;19.53;14.50;;;19.70;99.90;;;;;;5091426;28;20451;-65
2021/07/12 01:28:05;;;;;;;16.53;14.47;;;19.60;99.90;;;;;;5099993;28;20444;-66
2021/07/12 01:31:01;;;;;;;15.47;13.87;;;19.60;99.90;;;;;;5087941;28;20481;-65
2021/07/12 01:33:48;;;;;;;22.33;15.43;;;19.60;99.90;;;;;;5077638;28;20446;-65
2021/07/12 01:36:23;;;;;;;21.43;16.97;;;19.40;99.90;;;;;;5100569;28;20440;-66
2021/07/12 01:38:54;;;;;;;17.87;15.80;;;19.30;99.90;;;;;;5101399;28;20444;-66
2021/07/12 01:41:49;;;;;;;17.60;15.23;;;19.50;99.90;;;;;;5086496;28;20675;-65
2021/07/12 01:44:36;;;;;;;16.63;14.10;;;19.50;99.90;;;;;;5101693;28;20463;-65
2021/07/12 01:47:05;;;;;;;25.00;18.67;;;19.50;99.90;;;;;;5088523;28;20755;-65
2021/07/12 01:49:59;;;;;;;19.13;17.23;;;19.40;99.90;;;;;;5099884;28;20412;-66
2021/07/12 01:52:34;;;;;;;22.50;16.23;;;19.30;99.90;;;;;;5111384;28;20441;-67
2021/07/12 01:55:05;;;;;;;18.20;16.40;;;19.30;99.90;;;;;;5085330;28;20469;-65
2021/07/12 01:57:53;;;;;;;23.53;15.67;;;19.20;99.90;;;;;;5100401;28;20474;-66
2021/07/12 02:00:20;;;;;;;23.50;17.30;;;19.10;99.90;;;;;;5082709;28;20413;-63
2021/07/12 02:02:52;;;;;;;24.43;19.07;;;18.80;99.90;;;;;;5100412;28;20413;-68
2021/07/12 02:05:22;;;;;;;21.63;17.73;;;18.70;99.90;;;;;;5100786;28;20459;-67
2021/07/12 02:07:51;;;;;;;19.73;16.87;;;18.70;99.90;;;;;;5091123;28;20428;-67
2021/07/12 02:10:20;;;;;;;21.63;19.43;;;18.90;99.90;;;;;;5099729;28;20486;-67
2021/07/12 02:12:50;;;;;;;30.43;21.37;;;19.10;99.90;;;;;;5096979;28;20446;-67
2021/07/12 02:15:18;;;;;;;23.10;20.70;;;19.10;99.90;;;;;;5100156;28;20634;-67
2021/07/12 02:17:49;;;;;;;27.83;22.40;;;19.20;99.90;;;;;;5100538;28;20447;-68
2021/07/12 02:20:18;;;;;;;25.80;22.00;;;19.10;99.90;;;;;;5086485;28;20438;-68
2021/07/12 02:22:48;;;;;;;27.90;21.80;;;19.10;99.90;;;;;;5082425;28;20751;-67
2021/07/12 02:25:16;;;;;;;25.50;22.07;;;19.00;99.90;;;;;;5099456;28;20470;-68
2021/07/12 02:27:44;;;;;;;30.50;23.20;;;18.90;99.90;;;;;;5094804;28;20489;-68
2021/07/12 02:30:12;;;;;;;35.13;21.43;;;18.90;99.90;;;;;;5099763;28;20651;-67
2021/07/12 02:32:41;;;;;;;32.47;23.87;;;18.90;99.90;;;;;;5096383;28;20420;-67
2021/07/12 02:35:11;;;;;;;26.17;22.40;;;19.10;99.90;;;;;;5100049;28;20662;-67
2021/07/12 02:37:41;;;;;;;33.50;23.50;;;19.30;99.90;;;;;;5099959;28;20477;-66
2021/07/12 02:40:15;;;;;;;37.60;23.40;;;19.50;99.90;;;;;;5113370;28;20762;-66
2021/07/12 02:42:45;;;;;;;29.90;23.53;;;19.60;99.90;;;;;;5099544;28;20459;-66
2021/07/12 02:45:13;;;;;;;31.70;23.27;;;19.50;99.90;;;;;;5099974;28;20447;-66
2021/07/12 02:47:40;;;;;;;29.60;24.50;;;19.70;99.90;;;;;;5113511;28;20420;-66
2021/07/12 02:50:09;;;;;;;33.63;23.47;;;19.50;99.90;;;;;;5099824;28;20409;-67
2021/07/12 02:53:00;;;;;;;28.70;22.77;;;19.40;99.90;;;;;;5097792;28;20621;-66
2021/07/12 02:55:27;;;;;;;28.13;23.20;;;19.50;99.90;;;;;;5113203;28;20581;-66
2021/07/12 02:57:54;;;;;;;31.47;25.23;;;19.70;99.90;;;;;;5104948;28;20477;-66
2021/07/12 03:00:21;;;;;;;28.30;24.67;;;19.60;99.90;;;;;;5102152;28;20454;-67
2021/07/12 03:02:49;;;;;;;32.80;26.10;;;19.70;99.90;;;;;;5113835;28;20477;-66
2021/07/12 03:05:16;;;;;;;39.60;26.90;;;19.60;99.90;;;;;;5099225;28;20413;-67
2021/07/12 03:08:04;;;;;;;37.10;25.50;;;19.50;99.90;;;;;;5114605;28;20449;-67
2021/07/12 03:10:36;;;;;;;38.70;26.03;;;19.50;99.90;;;;;;5106255;28;20456;-67
2021/07/12 03:13:05;;;;;;;34.23;24.00;;;19.60;99.90;;;;;;5113350;28;20691;-67
2021/07/12 03:15:45;;;;;;;31.57;26.10;;;19.50;99.90;;;;;;5099522;28;20441;-66
2021/07/12 03:18:22;;;;;;;33.07;26.63;;;19.60;99.90;;;;;;5099133;28;20876;-66
2021/07/12 03:20:51;;;;;;;37.03;22.67;;;19.60;99.90;;;;;;5099264;28;20483;-67
2021/07/12 03:23:19;;;;;;;36.77;24.73;;;19.50;99.90;;;;;;5098890;28;20442;-67
2021/07/12 03:25:59;;;;;;;35.03;23.90;;;19.60;99.90;;;;;;5099108;28;20472;-67
2021/07/12 03:28:27;;;;;;;31.67;22.23;;;19.60;99.90;;;;;;5095802;28;20424;-67
2021/07/12 03:30:55;;;;;;;32.93;23.60;;;19.80;99.90;;;;;;5090252;28;20425;-67
2021/07/12 03:33:24;;;;;;;39.10;22.67;;;19.80;99.90;;;;;;5107775;28;20415;-66
2021/07/12 03:35:53;;;;;;;26.23;20.57;;;19.80;99.90;;;;;;5099034;28;20435;-67
2021/07/12 03:38:21;;;;;;;25.07;21.43;;;20.00;99.90;;;;;;5097964;28;20486;-67
2021/07/12 03:40:50;;;;;;;26.07;21.93;;;19.90;99.90;;;;;;5098788;28;20811;-67
2021/07/12 03:43:17;;;;;;;31.83;21.50;;;19.90;99.90;;;;;;5098545;28;20417;-66
2021/07/12 03:45:57;;;;;;;23.57;20.00;;;19.90;99.90;;;;;;5118082;28;20445;-66
2021/07/12 03:48:44;;;;;;;21.70;18.40;;;19.80;99.90;;;;;;5105646;28;20514;-66
2021/07/12 03:51:22;;;;;;;17.13;14.50;;;19.60;99.90;;;;;;5099036;28;20455;-67
2021/07/12 03:53:50;;;;;;;17.57;15.67;;;19.30;99.90;;;;;;5098863;28;20595;-65
2021/07/12 03:56:17;;;;;;;19.30;16.13;;;19.30;99.90;;;;;;5098220;28;20631;-66
2021/07/12 03:58:45;;;;;;;16.00;13.30;;;19.20;99.90;;;;;;5098177;28;20802;-67
2021/07/12 04:01:20;;;;;;;16.47;13.07;;;19.20;99.90;;;;;;5109046;28;20753;-66
2021/07/12 04:03:48;;;;;;;16.00;12.00;;;19.20;99.90;;;;;;5098313;28;20456;-67
2021/07/12 04:06:16;;;;;;;16.73;11.27;;;19.10;99.90;;;;;;5098013;28;20413;-67
2021/07/12 04:08:43;;;;;;;15.50;11.33;;;19.20;99.90;;;;;;5098316;28;20466;-68
2021/07/12 04:11:12;;;;;;;13.57;10.90;;;19.10;99.90;;;;;;5097788;28;20436;-65
2021/07/12 04:13:39;;;;;;;18.37;12.13;;;19.20;99.90;;;;;;5098493;28;20416;-67
2021/07/12 04:16:07;;;;;;;20.80;12.30;;;19.10;99.90;;;;;;5097884;28;20441;-66
2021/07/12 04:18:34;;;;;;;23.50;14.50;;;19.20;99.90;;;;;;5106611;28;20506;-66
2021/07/12 04:21:03;;;;;;;16.47;12.50;;;19.30;99.90;;;;;;5118096;28;20788;-66
2021/07/12 04:23:30;;;;;;;18.20;12.20;;;19.20;99.90;;;;;;5098322;28;20786;-67
2021/07/12 04:25:57;;;;;;;19.10;11.00;;;19.20;99.90;;;;;;5115600;28;20411;-66
2021/07/12 04:28:24;;;;;;;20.43;12.23;;;19.20;99.90;;;;;;5112496;28;20444;-66
2021/07/12 04:30:51;;;;;;;15.73;11.47;;;19.60;99.90;;;;;;5110047;28;20559;-66
2021/07/12 04:33:18;;;;;;;15.80;11.33;;;19.70;99.90;;;;;;5089496;28;20611;-66
2021/07/12 04:35:45;;;;;;;17.00;12.30;;;19.60;99.90;;;;;;5108731;28;20445;-64
2021/07/12 04:38:12;;;;;;;29.00;13.87;;;19.60;99.90;;;;;;5098193;28;20456;-62
2021/07/12 04:40:39;;;;;;;22.43;12.90;;;19.40;99.90;;;;;;5098334;28;20428;-63
2021/07/12 04:43:07;;;;;;;20.60;15.57;;;18.80;99.90;;;;;;5097823;28;20449;-63
2021/07/12 04:45:34;;;;;;;17.47;12.23;;;18.30;99.90;;;;;;5104636;28;20430;-65
2021/07/12 04:48:02;;;;;;;26.63;14.50;;;18.20;99.90;;;;;;5105282;28;20446;-62
2021/07/12 04:50:29;;;;;;;21.20;16.00;;;18.20;99.90;;;;;;5082594;28;20488;-64
2021/07/12 04:52:56;;;;;;;24.87;17.50;;;18.10;99.90;;;;;;5109487;28;20454;-63
2021/07/12 04:55:23;;;;;;;32.20;19.73;;;18.10;99.90;;;;;;5099831;28;20442;-63
2021/07/12 04:57:54;;;;;;;30.77;20.90;;;17.90;99.90;;;;;;5087620;28;20453;-63
2021/07/12 05:00:22;;;;;;;35.07;17.83;;;17.90;99.90;;;;;;5093733;28;20442;-64
2021/07/12 05:02:50;;;;;;;28.43;20.47;;;18.00;99.90;;;;;;5111683;28;20641;-63
2021/07/12 05:05:17;;;;;;;28.80;19.00;;;18.00;99.90;;;;;;5108658;28;20418;-63
2021/07/12 05:07:44;;;;;;;30.77;18.33;;;18.00;99.90;;;;;;5100258;28;20463;-62
2021/07/12 05:10:12;;;;;;;32.13;17.93;;;18.10;99.90;;;;;;5071434;28;20487;-62
2021/07/12 05:12:39;;;;;;;19.87;17.27;;;18.20;99.90;;;;;;5108517;28;20504;-63
2021/07/12 05:15:08;;;;;;;28.00;17.87;;;18.40;99.90;;;;;;5099998;28;20651;-62
2021/07/12 05:17:37;;;;;;;26.47;18.20;;;18.60;99.90;;;;;;5099332;28;20455;-62
2021/07/12 05:20:07;;;;;;;24.70;17.33;;;18.90;99.90;;;;;;5099651;28;20445;-62
2021/07/12 05:22:35;;;;;;;22.60;18.20;;;19.10;99.90;;;;;;5102525;28;20490;-62
2021/07/12 05:25:03;;;;;;;17.90;15.80;;;19.40;99.90;;;;;;5108368;28;20711;-64
2021/07/12 05:27:30;;;;;;;29.27;18.50;;;19.20;99.90;;;;;;5101058;28;20462;-62
2021/07/12 05:29:57;;;;;;;24.87;17.60;;;19.10;99.90;;;;;;5103535;28;20439;-62
2021/07/12 05:32:24;;;;;;;20.27;17.13;;;19.10;99.90;;;;;;5106539;28;20405;-63
2021/07/12 05:34:51;;;;;;;26.83;17.70;;;19.20;99.90;;;;;;5103816;28;20423;-63
2021/07/12 05:37:18;;;;;;;21.73;16.73;;;19.10;99.90;;;;;;5106798;28;20474;-62
2021/07/12 05:39:45;;;;;;;22.83;18.47;;;18.70;99.90;;;;;;5110501;28;20450;-61
2021/07/12 05:42:12;;;;;;;24.03;19.60;;;18.60;99.90;;;;;;5103866;28;20423;-61
2021/07/12 05:44:39;;;;;;;27.70;19.60;;;18.90;99.90;;;;;;5103525;28;20420;-62
2021/07/12 05:47:06;;;;;;;29.67;24.90;;;19.10;99.90;;;;;;5102016;28;20412;-61
2021/07/12 05:49:33;;;;;;;27.07;19.67;;;19.10;99.90;;;;;;5108121;28;20417;-62
2021/07/12 05:52:01;;;;;;;24.50;19.70;;;19.20;99.90;;;;;;5103141;28;20417;-62
2021/07/12 05:54:28;;;;;;;25.30;18.00;;;19.30;99.90;;;;;;5112191;28;20443;-64
2021/07/12 05:56:54;;;;;;;19.40;17.20;;;19.20;99.90;;;;;;5106234;28;20477;-62
2021/07/12 05:59:21;;;;;;;20.90;16.43;;;19.10;99.90;;;;;;5101771;28;20513;-65
2021/07/12 06:01:50;;;;;;;18.97;17.07;;;19.00;99.90;;;;;;5105189;28;20439;-63
2021/07/12 06:04:18;;;;;;;20.13;18.03;;;19.00;99.90;;;;;;5105626;28;20428;-62
2021/07/12 06:06:45;;;;;;;22.40;19.93;;;19.00;99.90;;;;;;5102969;28;20442;-63
2021/07/12 06:09:12;;;;;;;20.80;18.20;;;19.00;99.90;;;;;;5099867;28;20459;-63
2021/07/12 06:11:40;;;;;;;25.60;18.43;;;19.20;99.90;;;;;;5108368;28;20797;-63
2021/07/12 06:14:07;;;;;;;28.00;19.40;;;19.30;99.90;;;;;;5099898;28;20736;-62
2021/07/12 06:16:34;;;;;;;28.10;22.93;;;19.30;99.90;;;;;;5105117;28;21022;-62
2021/07/12 06:19:02;;;;;;;24.87;21.40;;;19.20;99.90;;;;;;5091828;28;20458;-62
2021/07/12 06:21:29;;;;;;;25.63;22.00;;;19.10;99.90;;;;;;5099697;28;20443;-62
2021/07/12 06:23:56;;;;;;;22.97;20.47;;;19.30;99.90;;;;;;5100133;28;20427;-63
2021/07/12 06:26:24;;;;;;;22.63;20.30;;;19.40;99.90;;;;;;5105464;28;20438;-62
2021/07/12 06:28:51;;;;;;;24.90;20.60;;;19.40;99.90;;;;;;5100684;28;20424;-62
2021/07/12 06:31:18;;;;;;;26.10;21.07;;;19.20;99.90;;;;;;5102536;28;20621;-61
2021/07/12 06:33:45;;;;;;;29.77;23.57;;;19.10;99.90;;;;;;5102128;28;20449;-61
2021/07/12 06:36:12;;;;;;;28.13;22.87;;;19.00;99.90;;;;;;5104249;28;20426;-63
2021/07/12 06:38:39;;;;;;;30.07;23.17;;;19.00;99.90;;;;;;5104680;28;20497;-61
2021/07/12 06:41:06;;;;;;;33.20;26.70;;;19.10;99.90;;;;;;5100008;28;20416;-61
2021/07/12 06:43:33;;;;;;;29.57;23.53;;;19.20;99.90;;;;;;5082283;28;20450;-60
2021/07/12 06:46:00;;;;;;;29.60;24.47;;;19.40;99.90;;;;;;5103395;28;20401;-62
2021/07/12 06:48:28;;;;;;;29.93;25.07;;;19.50;99.90;;;;;;5102191;28;20424;-61
2021/07/12 06:50:56;;;;;;;30.43;26.63;;;19.40;99.90;;;;;;5103890;28;20419;-62
2021/07/12 06:53:33;;;;;;;31.20;25.00;;;19.40;99.90;;;;;;5104841;28;20487;-61
2021/07/12 06:56:01;;;;;;;32.07;25.87;;;19.40;99.90;;;;;;5104963;28;20488;-62
2021/07/12 06:58:28;;;;;;;27.90;23.23;;;19.50;99.90;;;;;;5080327;28;20464;-61
2021/07/12 07:00:55;;;;;;;34.87;25.07;;;19.80;99.90;;;;;;5104592;28;20412;-60
2021/07/12 07:03:22;;;;;;;36.27;23.50;;;19.70;99.90;;;;;;5102633;28;20623;-60
2021/07/12 07:05:49;;;;;;;27.43;22.97;;;19.70;99.90;;;;;;5098568;28;20747;-60
2021/07/12 07:08:18;;;;;;;28.60;21.00;;;19.50;99.90;;;;;;5100419;28;20417;-61
2021/07/12 07:10:45;;;;;;;28.20;20.57;;;19.40;99.90;;;;;;5101425;28;20478;-59
2021/07/12 07:13:12;;;;;;;28.80;24.20;;;19.40;99.90;;;;;;5099210;28;20420;-61
2021/07/12 07:15:39;;;;;;;27.33;22.80;;;19.30;99.90;;;;;;5107324;28;20422;-60
2021/07/12 07:18:06;;;;;;;26.07;22.70;;;19.40;99.90;;;;;;5102675;28;20574;-60
2021/07/12 07:20:33;;;;;;;32.30;23.90;;;19.50;99.90;;;;;;5098202;28;20443;-61
2021/07/12 07:23:01;;;;;;;28.47;23.23;;;19.50;99.90;;;;;;5101094;28;20452;-62
2021/07/12 07:25:28;;;;;;;27.93;23.80;;;19.50;99.90;;;;;;5103475;28;20443;-61
2021/07/12 07:27:55;;;;;;;26.43;23.63;;;19.60;99.90;;;;;;5101784;28;20431;-61
2021/07/12 07:30:23;;;;;;;28.37;22.73;;;19.60;99.90;;;;;;5103781;28;20495;-61
2021/07/12 07:32:51;;;;;;;27.97;21.43;;;19.70;99.90;;;;;;5102291;28;20443;-60
2021/07/12 07:35:18;;;;;;;26.40;21.10;;;19.60;99.90;;;;;;5099146;28;20401;-60
2021/07/12 07:37:46;;;;;;;28.10;24.73;;;19.80;99.90;;;;;;5098676;28;20434;-60
2021/07/12 07:40:16;;;;;;;27.60;22.80;;;20.00;99.90;;;;;;5096826;28;20561;-60
2021/07/12 07:42:44;;;;;;;27.67;22.20;;;20.20;99.90;;;;;;5100228;28;20463;-60
2021/07/12 07:45:13;;;;;;;24.10;20.97;;;20.60;99.90;;;;;;5094263;28;20624;-60
2021/07/12 07:47:44;;;;;;;21.10;18.90;;;20.60;99.90;;;;;;5090631;28;20638;-60
2021/07/12 07:50:20;;;;;;;19.50;16.10;;;20.40;99.90;;;;;;5099185;28;20439;-60
2021/07/12 07:52:50;;;;;;;16.67;14.07;;;20.20;99.90;;;;;;5098862;28;20440;-59
2021/07/12 07:55:18;;;;;;;20.80;15.77;;;20.30;99.90;;;;;;5097756;28;20506;-59
2021/07/12 07:57:45;;;;;;;19.63;17.53;;;20.30;99.90;;;;;;5099817;28;20475;-59
2021/07/12 08:00:17;;;;;;;16.73;15.23;;;20.50;99.90;;;;;;5099566;28;20434;-60
2021/07/12 08:02:44;;;;;;;15.90;13.10;;;20.70;99.90;;;;;;5098268;28;20454;-61
2021/07/12 08:05:12;;;;;;;13.67;12.27;;;20.60;99.90;;;;;;5104021;28;20424;-61
2021/07/12 08:07:39;;;;;;;13.37;12.07;;;20.50;99.90;;;;;;5112767;28;20533;-60
2021/07/12 08:10:09;;;;;;;12.60;11.40;;;20.50;99.90;;;;;;5105391;28;20483;-60
2021/07/12 08:12:37;;;;;;;14.73;13.30;;;20.70;99.90;;;;;;5102655;28;20421;-60
2021/07/12 08:15:06;;;;;;;14.60;13.17;;;20.70;99.90;;;;;;5091095;28;20418;-60
2021/07/12 08:17:34;;;;;;;12.13;10.60;;;20.50;99.90;;;;;;5102347;28;20449;-60
2021/07/12 08:20:02;;;;;;;10.90;9.90;;;20.60;99.90;;;;;;5088644;28;20526;-61
2021/07/12 08:22:51;;;;;;;11.80;10.77;;;20.80;99.90;;;;;;5081784;28;20402;-61
2021/07/12 08:25:20;;;;;;;9.23;7.57;;;20.90;99.90;;;;;;5098510;28;20461;-59
2021/07/12 08:27:48;;;;;;;15.20;12.37;;;20.90;99.90;;;;;;5100062;28;20539;-61
2021/07/12 08:30:16;;;;;;;11.67;10.53;;;21.00;99.90;;;;;;5091653;28;20448;-60
2021/07/12 08:32:44;;;;;;;10.10;9.20;;;21.20;99.90;;;;;;5092330;28;20443;-60
2021/07/12 08:35:12;;;;;;;11.90;8.87;;;21.30;99.90;;;;;;5100302;28;20511;-59
2021/07/12 08:37:39;;;;;;;8.70;7.90;;;21.60;99.90;;;;;;5097377;28;20430;-59
2021/07/12 08:40:09;;;;;;;10.03;8.80;;;21.70;99.90;;;;;;5098993;28;20465;-59
2021/07/12 08:42:36;;;;;;;7.83;7.13;;;21.70;99.90;;;;;;5097331;28;20415;-59
2021/07/12 08:45:05;;;;;;;9.73;8.83;;;22.00;99.90;;;;;;5097111;28;20411;-60
2021/07/12 08:47:33;;;;;;;11.60;9.13;;;22.10;99.90;;;;;;5090273;28;20879;-59
2021/07/12 08:50:00;;;;;;;11.77;10.67;;;22.20;99.90;;;;;;5096178;28;20444;-59
2021/07/12 08:52:27;;;;;;;8.93;8.23;;;22.20;99.90;;;;;;5096284;28;20460;-60
2021/07/12 08:54:55;;;;;;;11.00;9.90;;;22.10;99.90;;;;;;5076916;28;20823;-60
2021/07/12 08:57:22;;;;;;;11.37;10.17;;;22.30;99.90;;;;;;5099648;28;20446;-59
2021/07/12 08:59:54;;;;;;;10.90;9.93;;;22.40;99.90;;;;;;5102142;28;20458;-60
2021/07/12 09:02:23;;;;;;;8.73;7.93;;;22.80;99.90;;;;;;5100142;28;20451;-62
2021/07/12 09:04:54;;;;;;;8.83;8.07;;;23.00;99.90;;;;;;5102242;28;20761;-61
2021/07/12 09:07:25;;;;;;;8.40;7.47;;;23.10;99.90;;;;;;5101313;28;20445;-60
2021/07/12 09:10:04;;;;;;;8.87;7.97;;;23.10;99.90;;;;;;5101421;28;20436;-62
2021/07/12 09:12:44;;;;;;;7.83;7.00;;;23.70;99.90;;;;;;5100616;28;20502;-60
2021/07/12 09:15:13;;;;;;;6.60;6.00;;;24.20;99.90;;;;;;5101393;28;20416;-60
2021/07/12 09:17:43;;;;;;;8.47;7.77;;;24.20;99.90;;;;;;5107039;28;20480;-61
2021/07/12 09:20:33;;;;;;;6.73;6.13;;;24.20;99.90;;;;;;5100324;28;20745;-60
2021/07/12 09:23:21;;;;;;;7.90;7.10;;;24.70;99.90;;;;;;5097709;28;20628;-60
2021/07/12 09:26:04;;;;;;;6.83;6.33;;;25.20;99.90;;;;;;5099775;28;20453;-60
2021/07/12 09:28:41;;;;;;;6.70;6.20;;;25.90;99.90;;;;;;5087836;28;20504;-60
2021/07/12 09:31:28;;;;;;;6.20;5.70;;;26.40;99.90;;;;;;5100081;28;20435;-60
2021/07/12 09:34:00;;;;;;;6.00;5.53;;;27.60;99.90;;;;;;5091174;28;20447;-60
2021/07/12 09:36:33;;;;;;;6.60;6.10;;;27.90;99.90;;;;;;5099538;28;20432;-61
2021/07/12 09:39:19;;;;;;;7.07;6.50;;;27.80;99.90;;;;;;5101211;28;20475;-61
2021/07/12 09:41:48;;;;;;;5.60;5.20;;;28.10;99.90;;;;;;5101266;28;20690;-60
2021/07/12 09:44:18;;;;;;;6.63;6.10;;;28.50;99.90;;;;;;5100488;28;20477;-61
2021/07/12 09:46:46;;;;;;;6.47;5.83;;;28.30;99.90;;;;;;5082288;28;20455;-60
2021/07/12 09:49:16;;;;;;;6.47;5.53;;;28.00;99.90;;;;;;5100661;28;20429;-60
2021/07/12 09:51:43;;;;;;;6.30;5.00;;;27.60;99.90;;;;;;5099581;28;20436;-61
2021/07/12 09:54:19;;;;;;;5.93;5.43;;;27.60;99.90;;;;;;5100327;28;20676;-61
2021/07/12 09:56:50;;;;;;;5.57;5.17;;;27.60;99.90;;;;;;5108148;28;20832;-61
2021/07/12 09:59:19;;;;;;;5.07;4.57;;;27.30;99.90;;;;;;5100600;28;20488;-60
2021/07/12 10:01:54;;;;;;;5.67;4.20;;;27.10;99.90;;;;;;5110188;28;20452;-62
2021/07/12 10:04:25;;;;;;;8.53;5.43;;;26.80;99.90;;;;;;5102242;28;20500;-61
2021/07/12 10:06:53;;;;;;;4.90;4.50;;;27.00;99.90;;;;;;5099601;28;20443;-61
2021/07/12 10:09:22;;;;;;;5.30;4.90;;;27.30;99.90;;;;;;5100399;28;20514;-59
2021/07/12 10:11:54;;;;;;;4.80;4.40;;;27.50;99.90;;;;;;5119598;28;20474;-60
2021/07/12 10:14:24;;;;;;;5.00;4.60;;;27.80;99.90;;;;;;5106443;28;20483;-59
2021/07/12 10:16:52;;;;;;;3.90;3.60;;;27.80;99.90;;;;;;5102122;28;20480;-59
2021/07/12 10:19:19;;;;;;;4.20;3.90;;;27.00;99.90;;;;;;5098700;28;20509;-59
2021/07/12 10:21:51;;;;;;;4.20;3.93;;;26.30;99.90;;;;;;5098348;28;20447;-60
2021/07/12 10:24:35;;;;;;;6.43;5.37;;;26.20;99.90;;;;;;5099223;28;20435;-61
2021/07/12 10:27:03;;;;;;;6.03;5.00;;;26.60;99.90;;;;;;5099009;28;20766;-60
2021/07/12 10:29:35;;;;;;;4.30;4.00;;;25.90;99.90;;;;;;5098448;28;20573;-60
2021/07/12 10:32:18;;;;;;;3.83;3.60;;;25.80;99.90;;;;;;5084349;28;20427;-60
2021/07/12 10:34:50;;;;;;;5.83;4.83;;;25.20;99.90;;;;;;5100596;28;20454;-60
2021/07/12 10:37:18;;;;;;;5.47;5.07;;;25.00;99.90;;;;;;5098751;28;20777;-61
2021/07/12 10:40:08;;;;;;;5.90;5.47;;;25.00;99.90;;;;;;5098568;28;20517;-61
2021/07/12 10:42:41;;;;;;;5.33;4.93;;;25.30;99.90;;;;;;5095868;28;20758;-60
2021/07/12 10:45:15;;;;;;;6.10;5.60;;;25.50;99.90;;;;;;5098441;28;20435;-60
2021/07/12 10:47:57;;;;;;;5.07;4.67;;;26.10;99.90;;;;;;5098941;28;20473;-60
2021/07/12 10:50:42;;;;;;;5.00;4.60;;;26.50;99.90;;;;;;5097133;28;20468;-63
2021/07/12 10:53:15;;;;;;;4.83;4.50;;;27.00;99.90;;;;;;5097781;28;20435;-59
2021/07/12 10:55:44;;;;;;;5.23;4.90;;;27.00;99.90;;;;;;5099291;28;20446;-60
2021/07/12 10:58:26;;;;;;;6.77;5.10;;;27.10;99.90;;;;;;5103581;28;20787;-61
2021/07/12 11:01:00;;;;;;;5.37;4.97;;;26.90;99.90;;;;;;5100214;28;20439;-60
2021/07/12 11:03:49;;;;;;;4.67;4.30;;;26.50;99.90;;;;;;5103399;28;20448;-59
2021/07/12 11:06:20;;;;;;;4.87;4.47;;;26.50;99.90;;;;;;5096733;28;20431;-61
2021/07/12 11:08:51;;;;;;;4.10;3.80;;;25.90;99.90;;;;;;5097038;28;20847;-59
2021/07/12 11:11:23;;;;;;;4.90;4.50;;;25.80;99.90;;;;;;5100613;28;20466;-59
2021/07/12 11:14:06;;;;;;;3.50;3.20;;;26.00;99.90;;;;;;5095173;28;20439;-59
2021/07/12 11:16:47;;;;;;;4.83;4.43;;;26.00;99.90;;;;;;5097917;28;20439;-60
2021/07/12 11:19:24;;;;;;;3.80;3.50;;;25.90;99.90;;;;;;5097076;28;20471;-60
2021/07/12 11:21:52;;;;;;;4.23;3.83;;;26.10;99.90;;;;;;5097061;28;20442;-59
2021/07/12 11:24:23;;;;;;;4.50;4.20;;;26.10;99.90;;;;;;5100299;28;20480;-61
2021/07/12 11:26:53;;;;;;;4.50;4.10;;;26.10;99.90;;;;;;5096783;28;20441;-61
2021/07/12 11:29:28;;;;;;;3.90;3.70;;;25.80;99.90;;;;;;5099600;28;20459;-60
2021/07/12 11:31:57;;;;;;;4.37;4.03;;;25.40;99.90;;;;;;5096163;28;20430;-59
2021/07/12 11:34:25;;;;;;;4.07;3.77;;;25.40;99.90;;;;;;5097933;28;20677;-60
2021/07/12 11:36:52;;;;;;;4.43;4.03;;;25.50;99.90;;;;;;5096457;28;20635;-60
2021/07/12 11:39:39;;;;;;;3.73;3.53;;;25.60;99.90;;;;;;5096449;28;20483;-61
2021/07/12 11:42:16;;;;;;;4.50;4.10;;;25.60;99.90;;;;;;5096243;28;20536;-60
2021/07/12 11:44:57;;;;;;;4.60;4.30;;;25.70;99.90;;;;;;5098532;28;20430;-59
2021/07/12 11:47:39;;;;;;;4.60;4.30;;;25.80;99.90;;;;;;5098375;28;20431;-60
2021/07/12 11:50:15;;;;;;;5.23;4.83;;;25.60;99.90;;;;;;5096302;28;20477;-60
2021/07/12 11:52:52;;;;;;;4.47;4.17;;;25.20;99.90;;;;;;5097786;28;20447;-60
2021/07/12 11:55:28;;;;;;;4.50;4.20;;;24.80;99.90;;;;;;5092657;28;20440;-60
2021/07/12 11:57:57;;;;;;;4.93;4.53;;;24.80;99.90;;;;;;5092604;28;20488;-60
2021/07/12 12:00:25;;;;;;;4.27;3.97;;;24.70;99.90;;;;;;5097998;28;20524;-60
2021/07/12 12:03:00;;;;;;;6.20;4.47;;;25.00;99.90;;;;;;5098570;28;20465;-60
2021/07/12 12:05:29;;;;;;;4.57;4.27;;;25.30;99.90;;;;;;5097401;28;20696;-60
2021/07/12 12:07:59;;;;;;;4.60;4.27;;;25.20;99.90;;;;;;5094056;28;20604;-60
2021/07/12 12:10:29;;;;;;;4.63;4.33;;;25.10;99.90;;;;;;5086909;28;20521;-61
2021/07/12 12:13:10;;;;;;;4.03;3.50;;;24.70;99.90;;;;;;5097843;28;20742;-60
2021/07/12 12:15:41;;;;;;;4.13;3.83;;;24.80;99.90;;;;;;5097748;28;20506;-60
2021/07/12 12:18:20;;;;;;;3.63;3.43;;;25.10;99.90;;;;;;5092976;28;20506;-59
2021/07/12 12:20:48;;;;;;;3.83;3.63;;;25.50;99.90;;;;;;5083408;28;20754;-59
2021/07/12 12:23:26;;;;;;;4.20;3.90;;;26.00;99.90;;;;;;5087799;28;20478;-59
2021/07/12 12:25:57;;;;;;;3.70;3.50;;;26.50;99.90;;;;;;5096750;28;20434;-60
2021/07/12 12:28:29;;;;;;;4.53;4.13;;;26.70;99.90;;;;;;5087308;28;20428;-60
2021/07/12 12:31:06;;;;;;;4.37;3.97;;;26.70;99.90;;;;;;5103027;28;20464;-60
2021/07/12 12:33:36;;;;;;;4.80;4.50;;;26.40;99.90;;;;;;5102312;28;20435;-61
2021/07/12 12:36:05;;;;;;;3.57;3.27;;;26.10;99.90;;;;;;5104193;28;20435;-60
2021/07/12 12:38:33;;;;;;;3.93;3.63;;;25.90;99.90;;;;;;5093015;28;20488;-61
2021/07/12 12:41:08;;;;;;;4.10;3.80;;;25.80;99.90;;;;;;5095140;28;20806;-60
2021/07/12 12:43:36;;;;;;;3.87;3.60;;;25.80;99.90;;;;;;5105565;28;20970;-60
2021/07/12 12:46:06;;;;;;;4.63;4.30;;;25.60;99.90;;;;;;5108487;28;20487;-61
2021/07/12 12:48:37;;;;;;;4.40;4.00;;;25.70;99.90;;;;;;5108913;28;20497;-60
2021/07/12 12:51:21;;;;;;;3.70;3.40;;;25.40;99.90;;;;;;5107265;28;20476;-60
2021/07/12 12:54:02;;;;;;;4.00;3.80;;;25.30;99.90;;;;;;5107458;28;20757;-60